< Typhoon 201520 2015 Season Typhoon 201522 >
Typhoon 201521 (DUJUAN)
General InformationTrack Information on Google MapsDetailed Wind InformationForecast History on Google MapsAccess Analytics MapList of All Images || NewsDisaster Info.WeblogTrackbackTyphoon FrontTwiphoonTyphoon Now!Typhoon ImaginationDisaster Info. XMLResourceGoogle EarthGE AnimationAtom FeedGeoJSON
Detalied Best Track (Time Zone = UTC)
Year Month Day Hour Lat. Long. Pressure (hPa) Wind (kt) Class Image Chart
2015 9 19 18 13.5 148.1 1004 0 2 Image Chart
2015 9 20 00 13.8 148.0 1002 0 2 Image Chart
2015 9 20 06 14.4 147.3 1000 0 2 Image Chart
2015 9 20 12 14.7 146.3 1002 0 2 Image Chart
2015 9 20 18 15.0 145.5 1000 0 2 Image Chart
2015 9 21 00 15.1 144.7 1000 0 2 Image Chart
2015 9 21 06 15.4 143.2 1002 0 2 Image Chart
2015 9 21 12 15.2 141.5 1002 0 2 Image Chart
2015 9 21 18 15.6 140.2 1002 0 2 Image Chart
2015 9 22 00 15.8 138.8 1002 0 2 Image Chart
2015 9 22 06 15.9 138.1 1002 0 2 Image Chart
2015 9 22 12 16.2 137.5 1000 35 3 Image Chart
2015 9 22 18 16.8 136.5 1000 35 3 Image Chart
2015 9 23 00 17.5 135.4 1000 35 3 Image Chart
2015 9 23 06 17.5 134.5 998 35 3 Image Chart
2015 9 23 12 17.8 133.8 998 35 3 Image Chart
2015 9 23 18 17.9 133.5 996 40 3 Image Chart
2015 9 24 00 18.2 133.1 994 45 3 Image Chart
2015 9 24 06 18.6 132.6 990 50 4 Image Chart
2015 9 24 12 18.7 132.4 985 50 4 Image Chart
2015 9 24 18 18.9 132.3 980 55 4 Image Chart
2015 9 25 00 19.1 132.1 975 60 4 Image Chart
2015 9 25 06 19.4 131.7 970 65 5 Image Chart
2015 9 25 12 19.7 131.3 965 70 5 Image Chart
2015 9 25 18 20.3 131.0 960 75 5 Image Chart
2015 9 26 00 20.9 130.3 960 75 5 Image Chart
2015 9 26 06 21.6 129.7 955 80 5 Image Chart
2015 9 26 12 21.9 128.9 945 90 5 Image Chart
2015 9 26 18 22.2 128.1 935 100 5 Image Chart
2015 9 27 00 22.3 127.5 925 110 5 Image Chart
2015 9 27 03 22.3 127.1 925 110 5 Image Chart
2015 9 27 06 22.5 126.8 925 110 5 Image Chart
2015 9 27 09 22.6 126.4 925 110 5 Image Chart
2015 9 27 12 22.7 125.9 925 110 5 Image Chart
2015 9 27 15 22.8 125.4 925 110 5 Image Chart
2015 9 27 18 23.0 124.9 925 110 5 Image Chart
2015 9 27 21 23.1 124.4 925 110 5 Image Chart
2015 9 28 00 23.3 123.9 925 110 5 Image Chart
2015 9 28 03 23.6 123.4 925 110 5 Image Chart
2015 9 28 06 24.1 122.9 925 110 5 Image Chart
2015 9 28 09 24.4 122.0 935 100 5 Image Chart
2015 9 28 12 24.3 121.0 965 75 5 Image Chart
2015 9 28 18 24.3 120.0 975 65 5 Image Chart
2015 9 29 00 24.9 118.9 985 55 4 Image Chart
2015 9 29 06 25.6 117.8 994 40 3 Image Chart
2015 9 29 12 26.4 116.4 1004 0 2 Image Chart
2015 9 29 18 27.4 115.9 1006 0 2 Image Chart
2015 9 30 00 27.9 116.1 1010 0 2 Image Chart
2015 9 30 06 28.7 116.7 1010 0 2 Image Chart
Japan Meteorological Agency Best Track Data | Correction Date : 2015-11-12
< Typhoon 201520 2015 Season Typhoon 201522 >

Help